Time;durP1;ratioP1;P1;durP2;ratioP2;P2;SDS_P1;SDS_P2;PMS_P1;PMS_P2;Temp;Humidity;BMP_temperature;BMP_pressure;BME280_temperature;BME280_humidity;BME280_pressure;Samples;Min_cycle;Max_cycle;Signal;HPM_P1;HPM_P2
2023/04/26 00:01:56;;;;;;;9.82;2.45;;;;;;;;;;5089508;27;20726;-66
2023/04/26 00:04:23;;;;;;;13.13;2.55;;;;;;;;;;5083132;28;20051;-65
2023/04/26 00:06:49;;;;;;;10.25;2.30;;;;;;;;;;5065590;28;20052;-66
2023/04/26 00:09:18;;;;;;;14.77;2.65;;;;;;;;;;5085922;27;20055;-66
2023/04/26 00:11:44;;;;;;;10.93;2.30;;;;;;;;;;5087240;28;20774;-66
2023/04/26 00:14:10;;;;;;;9.90;2.45;;;;;;;;;;5081926;27;20056;-66
2023/04/26 00:16:36;;;;;;;11.63;2.47;;;;;;;;;;5084391;27;20040;-66
2023/04/26 00:19:03;;;;;;;10.75;1.90;;;;;;;;;;5085158;27;20070;-66
2023/04/26 00:21:29;;;;;;;13.02;2.72;;;;;;;;;;5052405;28;20083;-66
2023/04/26 00:23:56;;;;;;;9.52;2.85;;;;;;;;;;5080886;28;20537;-66
2023/04/26 00:26:22;;;;;;;14.93;2.85;;;;;;;;;;5082657;28;20075;-66
2023/04/26 00:28:48;;;;;;;16.02;2.85;;;;;;;;;;5068619;28;20158;-66
2023/04/26 00:31:15;;;;;;;11.88;2.45;;;;;;;;;;5066811;28;20566;-66
2023/04/26 00:33:42;;;;;;;9.20;2.15;;;;;;;;;;5065198;28;20044;-66
2023/04/26 00:36:08;;;;;;;9.93;1.90;;;;;;;;;;5095188;28;20445;-66
2023/04/26 00:38:34;;;;;;;5.90;1.77;;;;;;;;;;5091138;28;20071;-66
2023/04/26 00:41:00;;;;;;;8.75;1.75;;;;;;;;;;5084020;28;20054;-66
2023/04/26 00:43:26;;;;;;;11.68;2.10;;;;;;;;;;5082858;28;20039;-65
2023/04/26 00:45:52;;;;;;;11.98;2.47;;;;;;;;;;5081681;28;20057;-65
2023/04/26 00:48:19;;;;;;;15.90;2.30;;;;;;;;;;5086564;28;20103;-65
2023/04/26 00:50:46;;;;;;;7.90;1.50;;;;;;;;;;5065835;28;20051;-66
2023/04/26 00:53:14;;;;;;;7.80;2.05;;;;;;;;;;5084272;28;20047;-66
2023/04/26 00:55:41;;;;;;;6.05;2.30;;;;;;;;;;5085007;28;20044;-66
2023/04/26 00:58:07;;;;;;;14.00;2.72;;;;;;;;;;5081387;28;20089;-65
2023/04/26 01:00:33;;;;;;;8.27;2.00;;;;;;;;;;5070912;28;20074;-66
2023/04/26 01:03:00;;;;;;;7.45;1.95;;;;;;;;;;5085927;28;20071;-66
2023/04/26 01:05:26;;;;;;;9.40;2.05;;;;;;;;;;5083559;28;20036;-66
2023/04/26 01:07:52;;;;;;;8.60;1.67;;;;;;;;;;5085455;28;20387;-66
2023/04/26 01:10:18;;;;;;;7.13;2.22;;;;;;;;;;5084403;28;20040;-66
2023/04/26 01:12:45;;;;;;;6.43;2.30;;;;;;;;;;5062772;28;20578;-66
2023/04/26 01:15:11;;;;;;;11.38;2.00;;;;;;;;;;5063874;28;20047;-65
2023/04/26 01:17:38;;;;;;;8.27;1.80;;;;;;;;;;5080589;28;20099;-66
2023/04/26 01:20:04;;;;;;;6.32;1.70;;;;;;;;;;5091110;28;20055;-66
2023/04/26 01:22:32;;;;;;;5.50;1.73;;;;;;;;;;5096489;28;20050;-65
2023/04/26 01:24:59;;;;;;;8.07;2.30;;;;;;;;;;5069929;28;20040;-66
2023/04/26 01:27:25;;;;;;;13.10;1.92;;;;;;;;;;5089210;28;20047;-66
2023/04/26 01:29:51;;;;;;;9.40;2.10;;;;;;;;;;5085512;28;20048;-66
2023/04/26 01:32:18;;;;;;;6.40;1.75;;;;;;;;;;5088438;28;20036;-65
2023/04/26 01:34:44;;;;;;;10.88;2.25;;;;;;;;;;5084957;28;20135;-66
2023/04/26 01:37:10;;;;;;;6.88;1.80;;;;;;;;;;5072358;28;20092;-65
2023/04/26 01:39:36;;;;;;;7.35;2.05;;;;;;;;;;5086247;28;20047;-66
2023/04/26 01:42:03;;;;;;;7.03;1.88;;;;;;;;;;5092969;28;20051;-66
2023/04/26 01:44:30;;;;;;;7.07;1.80;;;;;;;;;;5069858;28;20048;-66
2023/04/26 01:46:56;;;;;;;11.32;1.98;;;;;;;;;;5086718;28;20408;-66
2023/04/26 01:49:22;;;;;;;8.07;1.80;;;;;;;;;;5087988;28;20071;-65
2023/04/26 01:51:48;;;;;;;6.15;1.63;;;;;;;;;;5089527;28;20044;-66
2023/04/26 01:54:15;;;;;;;8.43;3.47;;;;;;;;;;5090865;28;20048;-65
2023/04/26 01:56:41;;;;;;;12.73;2.67;;;;;;;;;;5088908;28;20181;-66
2023/04/26 01:59:07;;;;;;;10.77;2.28;;;;;;;;;;5085130;28;20178;-65
2023/04/26 02:01:33;;;;;;;6.30;1.95;;;;;;;;;;5086370;28;20036;-66
2023/04/26 02:03:59;;;;;;;10.02;2.22;;;;;;;;;;5089521;27;20051;-66
2023/04/26 02:06:25;;;;;;;8.65;1.85;;;;;;;;;;5091232;27;20072;-66
2023/04/26 02:08:52;;;;;;;6.93;2.25;;;;;;;;;;5073198;28;20051;-65
2023/04/26 02:11:18;;;;;;;13.77;3.55;;;;;;;;;;5090537;27;20067;-65
2023/04/26 02:13:44;;;;;;;7.55;1.83;;;;;;;;;;5073074;28;20048;-65
2023/04/26 02:16:10;;;;;;;8.88;2.30;;;;;;;;;;5093711;27;20059;-66
2023/04/26 02:18:36;;;;;;;16.73;2.65;;;;;;;;;;5093808;27;20040;-65
2023/04/26 02:21:07;;;;;;;9.93;2.42;;;;;;;;;;5094621;27;20055;-65
2023/04/26 02:23:33;;;;;;;9.57;1.98;;;;;;;;;;5087723;27;20505;-65
2023/04/26 02:25:59;;;;;;;13.43;1.90;;;;;;;;;;5085466;27;21566;-66
2023/04/26 02:28:25;;;;;;;8.85;1.65;;;;;;;;;;5092945;27;20719;-65
2023/04/26 02:30:51;;;;;;;10.55;2.30;;;;;;;;;;5095013;28;20040;-65
2023/04/26 02:33:18;;;;;;;6.45;1.88;;;;;;;;;;5094422;28;20086;-66
2023/04/26 02:35:44;;;;;;;7.72;2.47;;;;;;;;;;5090550;27;20119;-65
2023/04/26 02:38:10;;;;;;;7.43;1.92;;;;;;;;;;5070348;28;20493;-66
2023/04/26 02:40:36;;;;;;;7.63;1.95;;;;;;;;;;5087141;27;20032;-66
2023/04/26 02:43:02;;;;;;;7.70;1.85;;;;;;;;;;5066959;28;20047;-66
2023/04/26 02:45:28;;;;;;;8.73;2.33;;;;;;;;;;5090413;28;20067;-66
2023/04/26 02:47:55;;;;;;;11.20;2.10;;;;;;;;;;5086975;27;20678;-66
2023/04/26 02:50:21;;;;;;;5.90;1.63;;;;;;;;;;5068421;27;20043;-65
2023/04/26 02:52:47;;;;;;;5.13;2.15;;;;;;;;;;5069243;28;20104;-65
2023/04/26 02:55:13;;;;;;;7.47;1.83;;;;;;;;;;5084438;28;20048;-66
2023/04/26 02:57:39;;;;;;;7.55;2.00;;;;;;;;;;5087381;27;20043;-66
2023/04/26 03:00:06;;;;;;;7.70;2.42;;;;;;;;;;5067067;28;20502;-66
2023/04/26 03:02:33;;;;;;;8.45;2.67;;;;;;;;;;5083921;28;20101;-66
2023/04/26 03:04:59;;;;;;;7.00;1.90;;;;;;;;;;5085231;27;20032;-66
2023/04/26 03:07:25;;;;;;;5.03;1.75;;;;;;;;;;5086260;27;20054;-66
2023/04/26 03:09:51;;;;;;;5.45;1.83;;;;;;;;;;5086250;27;20369;-65
2023/04/26 03:12:17;;;;;;;5.75;1.40;;;;;;;;;;5083606;27;20043;-66
2023/04/26 03:14:43;;;;;;;8.68;2.03;;;;;;;;;;5085957;28;20040;-66
2023/04/26 03:17:09;;;;;;;6.60;1.80;;;;;;;;;;5085089;27;20124;-66
2023/04/26 03:19:35;;;;;;;8.52;1.55;;;;;;;;;;5084526;28;20067;-66
2023/04/26 03:22:02;;;;;;;6.65;1.70;;;;;;;;;;5085194;27;20140;-66
2023/04/26 03:24:28;;;;;;;11.57;2.17;;;;;;;;;;5089832;27;20431;-66
2023/04/26 03:26:54;;;;;;;10.45;2.00;;;;;;;;;;5086851;27;20056;-66
2023/04/26 03:29:20;;;;;;;6.82;2.00;;;;;;;;;;5085528;27;20405;-66
2023/04/26 03:31:46;;;;;;;6.38;1.65;;;;;;;;;;5085752;28;20044;-66
2023/04/26 03:34:12;;;;;;;7.90;1.80;;;;;;;;;;5089676;27;20181;-66
2023/04/26 03:36:38;;;;;;;6.80;1.58;;;;;;;;;;5083689;27;20051;-65
2023/04/26 03:39:05;;;;;;;6.10;1.65;;;;;;;;;;5083833;27;20146;-66
2023/04/26 03:41:32;;;;;;;6.72;1.85;;;;;;;;;;5086501;28;20035;-66
2023/04/26 03:43:58;;;;;;;6.97;2.70;;;;;;;;;;5083484;27;20151;-66
2023/04/26 03:46:24;;;;;;;6.05;1.75;;;;;;;;;;5082242;27;20665;-66
2023/04/26 03:48:50;;;;;;;10.75;2.25;;;;;;;;;;5087295;27;20118;-65
2023/04/26 03:51:16;;;;;;;11.07;2.30;;;;;;;;;;5082823;28;20044;-65
2023/04/26 03:53:45;;;;;;;12.63;2.25;;;;;;;;;;5064012;28;20055;-66
2023/04/26 03:56:11;;;;;;;10.77;2.40;;;;;;;;;;5085385;27;20051;-65
2023/04/26 03:58:37;;;;;;;9.32;2.17;;;;;;;;;;5084883;28;20046;-66
2023/04/26 04:01:03;;;;;;;19.25;2.85;;;;;;;;;;5084376;28;20043;-66
2023/04/26 04:03:30;;;;;;;7.55;2.10;;;;;;;;;;5065888;27;20044;-66
2023/04/26 04:05:56;;;;;;;12.00;2.15;;;;;;;;;;5084647;28;20538;-66
2023/04/26 04:08:22;;;;;;;13.90;2.20;;;;;;;;;;5084041;28;20055;-65
2023/04/26 04:10:48;;;;;;;8.55;2.13;;;;;;;;;;5086042;28;20040;-66
2023/04/26 04:13:14;;;;;;;8.68;2.28;;;;;;;;;;5066112;27;20094;-66
2023/04/26 04:15:40;;;;;;;7.88;2.33;;;;;;;;;;5082308;27;20472;-65
2023/04/26 04:18:07;;;;;;;10.80;2.35;;;;;;;;;;5083613;28;20052;-65
2023/04/26 04:20:33;;;;;;;7.75;2.45;;;;;;;;;;5083026;27;20040;-66
2023/04/26 04:23:00;;;;;;;6.25;1.92;;;;;;;;;;5070418;28;20475;-66
2023/04/26 04:25:27;;;;;;;5.82;1.83;;;;;;;;;;5049751;28;20133;-66
2023/04/26 04:27:53;;;;;;;7.57;1.90;;;;;;;;;;5085245;28;20048;-65
2023/04/26 04:30:19;;;;;;;9.77;2.63;;;;;;;;;;5086290;28;20471;-66
2023/04/26 04:32:45;;;;;;;7.07;1.80;;;;;;;;;;5086629;28;20044;-66
2023/04/26 04:35:12;;;;;;;8.95;2.35;;;;;;;;;;5068052;28;20491;-65
2023/04/26 04:37:38;;;;;;;8.95;1.92;;;;;;;;;;5066924;28;20063;-65
2023/04/26 04:40:04;;;;;;;6.50;1.95;;;;;;;;;;5068027;28;20051;-66
2023/04/26 04:42:31;;;;;;;6.28;2.20;;;;;;;;;;5064449;28;20126;-65
2023/04/26 04:44:58;;;;;;;10.55;2.28;;;;;;;;;;5087906;28;20165;-66
2023/04/26 04:47:24;;;;;;;4.55;1.73;;;;;;;;;;5076885;28;20047;-66
2023/04/26 04:49:51;;;;;;;9.82;1.98;;;;;;;;;;5087032;28;20182;-65
2023/04/26 04:52:20;;;;;;;4.30;1.60;;;;;;;;;;5053991;28;20047;-65
2023/04/26 04:54:47;;;;;;;10.77;2.20;;;;;;;;;;5085800;28;20050;-66
2023/04/26 04:57:13;;;;;;;5.80;1.92;;;;;;;;;;5095293;28;20040;-65
2023/04/26 04:59:39;;;;;;;8.13;2.58;;;;;;;;;;5075406;28;20119;-66
2023/04/26 05:02:05;;;;;;;11.70;2.55;;;;;;;;;;5092383;28;20048;-66
2023/04/26 05:04:33;;;;;;;16.70;3.00;;;;;;;;;;5085070;28;20368;-66
2023/04/26 05:06:59;;;;;;;10.30;2.83;;;;;;;;;;5066031;28;20060;-65
2023/04/26 05:09:26;;;;;;;8.02;3.10;;;;;;;;;;5081616;28;20036;-66
2023/04/26 05:11:52;;;;;;;8.85;2.75;;;;;;;;;;5083804;28;20067;-66
2023/04/26 05:14:18;;;;;;;12.27;2.83;;;;;;;;;;5086964;28;20036;-66
2023/04/26 05:16:44;;;;;;;10.43;2.75;;;;;;;;;;5068221;28;20124;-65
2023/04/26 05:19:12;;;;;;;13.57;4.45;;;;;;;;;;5086171;28;20051;-66
2023/04/26 05:21:38;;;;;;;16.45;2.85;;;;;;;;;;5089944;28;20557;-66
2023/04/26 05:24:04;;;;;;;10.40;3.05;;;;;;;;;;5074446;28;20079;-66
2023/04/26 05:26:30;;;;;;;11.68;2.58;;;;;;;;;;5092905;28;20043;-66
2023/04/26 05:28:56;;;;;;;11.75;3.15;;;;;;;;;;5089445;28;20047;-66
2023/04/26 05:31:23;;;;;;;12.43;3.53;;;;;;;;;;5093048;28;20324;-66
2023/04/26 05:33:49;;;;;;;13.80;2.80;;;;;;;;;;5092610;28;20416;-66
2023/04/26 05:36:15;;;;;;;8.07;2.58;;;;;;;;;;5074823;28;20040;-66
2023/04/26 05:38:41;;;;;;;9.27;3.05;;;;;;;;;;5086554;28;20071;-66
2023/04/26 05:41:07;;;;;;;8.65;2.60;;;;;;;;;;5073764;28;20056;-66
2023/04/26 05:43:33;;;;;;;8.93;2.45;;;;;;;;;;5072654;27;20123;-66
2023/04/26 05:46:00;;;;;;;11.10;2.78;;;;;;;;;;5089313;27;20044;-65
2023/04/26 05:48:28;;;;;;;12.68;2.78;;;;;;;;;;5090450;27;20768;-66
2023/04/26 05:50:54;;;;;;;13.80;2.65;;;;;;;;;;5094478;28;20040;-66
2023/04/26 05:53:21;;;;;;;15.07;2.85;;;;;;;;;;5090710;27;20654;-65
2023/04/26 05:55:47;;;;;;;11.73;2.80;;;;;;;;;;5069816;28;20499;-66
2023/04/26 05:58:13;;;;;;;9.60;2.88;;;;;;;;;;5090099;27;20066;-66
2023/04/26 06:00:40;;;;;;;9.88;2.63;;;;;;;;;;5090542;27;20048;-65
2023/04/26 06:03:06;;;;;;;12.98;3.05;;;;;;;;;;5091317;28;20051;-66
2023/04/26 06:05:32;;;;;;;7.00;3.10;;;;;;;;;;5092866;27;20036;-65
2023/04/26 06:07:58;;;;;;;13.23;3.30;;;;;;;;;;5074931;28;20051;-65
2023/04/26 06:10:25;;;;;;;12.95;2.85;;;;;;;;;;5092240;27;20127;-65
2023/04/26 06:12:51;;;;;;;12.45;3.08;;;;;;;;;;5092090;27;20058;-65
2023/04/26 06:15:17;;;;;;;6.05;2.55;;;;;;;;;;5095031;28;20184;-65
2023/04/26 06:17:43;;;;;;;6.60;2.60;;;;;;;;;;5076767;28;20118;-66
2023/04/26 06:20:10;;;;;;;9.70;2.78;;;;;;;;;;5092512;27;20040;-66
2023/04/26 06:22:36;;;;;;;9.00;2.60;;;;;;;;;;5091314;27;20048;-65
2023/04/26 06:25:04;;;;;;;5.32;2.15;;;;;;;;;;5091468;27;20039;-66
2023/04/26 06:27:30;;;;;;;8.43;2.00;;;;;;;;;;5077048;28;20597;-66
2023/04/26 06:29:56;;;;;;;8.50;2.05;;;;;;;;;;5102538;27;20054;-66
2023/04/26 06:32:22;;;;;;;11.50;2.25;;;;;;;;;;5102441;28;20028;-66
2023/04/26 06:34:48;;;;;;;6.07;1.88;;;;;;;;;;5082588;28;20367;-66
2023/04/26 06:37:15;;;;;;;7.43;1.85;;;;;;;;;;5102342;27;20107;-66
2023/04/26 06:39:41;;;;;;;8.82;2.13;;;;;;;;;;5093882;28;20032;-66
2023/04/26 06:42:07;;;;;;;12.35;2.03;;;;;;;;;;5105217;27;20062;-66
2023/04/26 06:44:33;;;;;;;7.35;2.00;;;;;;;;;;5077327;28;20071;-66
2023/04/26 06:46:59;;;;;;;8.70;2.00;;;;;;;;;;5092390;28;20040;-66
2023/04/26 06:49:26;;;;;;;6.72;2.17;;;;;;;;;;5101453;28;20127;-66
2023/04/26 06:51:52;;;;;;;9.55;3.08;;;;;;;;;;5096963;28;20050;-66
2023/04/26 06:54:18;;;;;;;7.40;1.90;;;;;;;;;;5099027;28;20040;-66
2023/04/26 06:56:45;;;;;;;11.88;2.67;;;;;;;;;;5101176;27;20069;-66
2023/04/26 06:59:11;;;;;;;11.02;2.40;;;;;;;;;;5076811;28;20089;-66
2023/04/26 07:01:38;;;;;;;10.15;2.45;;;;;;;;;;5070666;28;20055;-66
2023/04/26 07:04:06;;;;;;;7.65;1.85;;;;;;;;;;5095988;27;20410;-66
2023/04/26 07:06:33;;;;;;;7.88;2.22;;;;;;;;;;5095530;28;20035;-66
2023/04/26 07:09:00;;;;;;;11.00;2.35;;;;;;;;;;5077706;27;20071;-66
2023/04/26 07:11:26;;;;;;;11.20;2.00;;;;;;;;;;5099685;28;20043;-66
2023/04/26 07:13:52;;;;;;;8.18;2.40;;;;;;;;;;5097377;27;20047;-66
2023/04/26 07:16:18;;;;;;;8.35;2.35;;;;;;;;;;5087377;27;20600;-65
2023/04/26 07:18:47;;;;;;;10.15;2.00;;;;;;;;;;5071416;28;20048;-66
2023/04/26 07:21:13;;;;;;;15.15;2.28;;;;;;;;;;5091328;28;20068;-66
2023/04/26 07:23:39;;;;;;;9.80;2.15;;;;;;;;;;5089496;27;20151;-66
2023/04/26 07:26:05;;;;;;;10.50;2.05;;;;;;;;;;5088381;27;20052;-69
2023/04/26 07:28:32;;;;;;;17.55;3.13;;;;;;;;;;5091970;28;20048;-66
2023/04/26 07:30:58;;;;;;;10.27;2.10;;;;;;;;;;5078313;27;20457;-67
2023/04/26 07:33:25;;;;;;;9.50;2.17;;;;;;;;;;5091655;27;20059;-67
2023/04/26 07:35:58;;;;;;;14.63;2.50;;;;;;;;;;5090872;27;20040;-71
2023/04/26 07:38:25;;;;;;;8.68;1.92;;;;;;;;;;5089397;27;20187;-65
2023/04/26 07:40:51;;;;;;;10.40;1.83;;;;;;;;;;5087535;27;20040;-66
2023/04/26 07:43:18;;;;;;;7.47;2.03;;;;;;;;;;5089358;27;20036;-65
2023/04/26 07:45:44;;;;;;;13.75;2.72;;;;;;;;;;5092233;27;20105;-65
2023/04/26 07:48:11;;;;;;;6.75;2.08;;;;;;;;;;5092224;27;21201;-65
2023/04/26 07:50:37;;;;;;;10.30;2.53;;;;;;;;;;5073978;28;20048;-65
2023/04/26 07:53:03;;;;;;;7.63;2.15;;;;;;;;;;5088013;27;20032;-65
2023/04/26 07:55:30;;;;;;;14.90;2.55;;;;;;;;;;5087407;27;20697;-66
2023/04/26 07:57:56;;;;;;;7.90;2.83;;;;;;;;;;5091606;27;20412;-65
2023/04/26 08:00:23;;;;;;;9.63;2.42;;;;;;;;;;5091713;27;20036;-65
2023/04/26 08:02:49;;;;;;;6.47;1.88;;;;;;;;;;5091967;28;20119;-65
2023/04/26 08:05:15;;;;;;;9.38;2.45;;;;;;;;;;5096912;27;20119;-65
2023/04/26 08:07:42;;;;;;;10.98;2.25;;;;;;;;;;5087241;28;20101;-65
2023/04/26 08:10:09;;;;;;;7.88;2.28;;;;;;;;;;5094414;27;20451;-66
2023/04/26 08:12:37;;;;;;;6.88;2.40;;;;;;;;;;5096603;28;20036;-65
2023/04/26 08:15:04;;;;;;;9.30;2.65;;;;;;;;;;5080001;28;20235;-65
2023/04/26 08:17:32;;;;;;;9.75;2.10;;;;;;;;;;5086559;28;20043;-66
2023/04/26 08:19:58;;;;;;;10.25;2.30;;;;;;;;;;5086219;27;20047;-65
2023/04/26 08:22:24;;;;;;;7.20;1.77;;;;;;;;;;5095613;28;20036;-65
2023/04/26 08:24:52;;;;;;;7.45;2.20;;;;;;;;;;5094843;28;20426;-65
2023/04/26 08:27:18;;;;;;;6.75;2.38;;;;;;;;;;5101797;28;20082;-66
2023/04/26 08:29:45;;;;;;;5.32;2.08;;;;;;;;;;5097475;28;20044;-65
2023/04/26 08:32:11;;;;;;;9.35;2.90;;;;;;;;;;5099208;28;20094;-65
2023/04/26 08:34:38;;;;;;;9.55;2.25;;;;;;;;;;5073604;28;20127;-66
2023/04/26 08:37:04;;;;;;;10.10;2.38;;;;;;;;;;5074007;28;20230;-66
2023/04/26 08:39:30;;;;;;;10.00;2.45;;;;;;;;;;5095997;28;20051;-66
2023/04/26 08:41:58;;;;;;;5.22;1.92;;;;;;;;;;5075966;28;20044;-66
2023/04/26 08:44:25;;;;;;;10.68;2.13;;;;;;;;;;5103323;28;20075;-66
2023/04/26 08:47:03;;;;;;;12.80;2.65;;;;;;;;;;5093980;28;20043;-66
2023/04/26 08:49:35;;;;;;;5.18;2.10;;;;;;;;;;5091931;28;20098;-66
2023/04/26 08:52:03;;;;;;;7.88;2.35;;;;;;;;;;5079900;28;20348;-66
2023/04/26 08:54:30;;;;;;;7.50;2.72;;;;;;;;;;5078882;28;20055;-66
2023/04/26 08:56:58;;;;;;;12.15;2.72;;;;;;;;;;5099926;28;20269;-65
2023/04/26 08:59:24;;;;;;;12.75;2.47;;;;;;;;;;5084251;28;20051;-65
2023/04/26 09:01:51;;;;;;;11.02;2.30;;;;;;;;;;5078037;28;20092;-65
2023/04/26 09:04:17;;;;;;;10.23;2.05;;;;;;;;;;5094237;28;20046;-65
2023/04/26 09:06:43;;;;;;;8.93;2.55;;;;;;;;;;5082675;28;20035;-65
2023/04/26 09:09:11;;;;;;;6.45;2.22;;;;;;;;;;5092571;28;20078;-65
2023/04/26 09:11:58;;;;;;;15.43;2.83;;;;;;;;;;5075221;28;20608;-65
2023/04/26 09:14:24;;;;;;;10.68;2.63;;;;;;;;;;5096991;28;20407;-66
2023/04/26 09:16:51;;;;;;;10.27;3.03;;;;;;;;;;5094525;27;20044;-65
2023/04/26 09:19:17;;;;;;;9.48;2.40;;;;;;;;;;5098369;27;20523;-65
2023/04/26 09:21:44;;;;;;;12.82;3.28;;;;;;;;;;5096363;28;20148;-66
2023/04/26 09:24:10;;;;;;;10.13;2.70;;;;;;;;;;5097675;28;20040;-65
2023/04/26 09:26:36;;;;;;;8.70;2.80;;;;;;;;;;5101388;27;20418;-65
2023/04/26 09:29:13;;;;;;;9.13;2.67;;;;;;;;;;5103341;27;20084;-66
2023/04/26 09:31:40;;;;;;;9.77;2.28;;;;;;;;;;5099636;28;20039;-66
2023/04/26 09:34:07;;;;;;;12.95;2.35;;;;;;;;;;5099056;28;20043;-66
2023/04/26 09:36:45;;;;;;;11.63;2.33;;;;;;;;;;5096693;27;20092;-65
2023/04/26 09:39:12;;;;;;;11.65;2.50;;;;;;;;;;5074530;28;20047;-65
2023/04/26 09:41:43;;;;;;;10.07;2.33;;;;;;;;;;5079850;28;20063;-66
2023/04/26 09:44:21;;;;;;;15.32;2.80;;;;;;;;;;5090069;28;20058;-66
2023/04/26 09:46:58;;;;;;;11.10;2.30;;;;;;;;;;5090593;27;20058;-66
2023/04/26 09:49:26;;;;;;;8.73;2.15;;;;;;;;;;5093456;28;20051;-64
2023/04/26 09:52:00;;;;;;;10.40;2.17;;;;;;;;;;5089049;27;20044;-66
2023/04/26 09:54:41;;;;;;;13.80;2.63;;;;;;;;;;5091831;28;20035;-65
2023/04/26 09:57:07;;;;;;;13.23;2.92;;;;;;;;;;5091932;27;20055;-63
2023/04/26 09:59:39;;;;;;;8.60;2.13;;;;;;;;;;5094792;28;20559;-63
2023/04/26 10:02:09;;;;;;;8.95;2.40;;;;;;;;;;5095075;28;20152;-64
2023/04/26 10:04:35;;;;;;;9.32;2.38;;;;;;;;;;5095215;27;20051;-64
2023/04/26 10:07:02;;;;;;;15.32;3.05;;;;;;;;;;5071551;28;20115;-64
2023/04/26 10:09:28;;;;;;;11.23;2.35;;;;;;;;;;5091090;27;20047;-64
2023/04/26 10:11:55;;;;;;;8.88;1.75;;;;;;;;;;5093146;28;20075;-63
2023/04/26 10:14:22;;;;;;;10.32;2.33;;;;;;;;;;5092619;27;20091;-64
2023/04/26 10:16:49;;;;;;;5.07;1.90;;;;;;;;;;5077402;28;20043;-63
2023/04/26 10:19:15;;;;;;;11.15;2.58;;;;;;;;;;5079622;28;20047;-63
2023/04/26 10:21:42;;;;;;;11.65;2.10;;;;;;;;;;5100660;27;20035;-65
2023/04/26 10:24:10;;;;;;;10.30;1.75;;;;;;;;;;5098798;28;20060;-65
2023/04/26 10:26:47;;;;;;;10.52;2.00;;;;;;;;;;5093803;27;20383;-64
2023/04/26 10:29:13;;;;;;;7.72;1.80;;;;;;;;;;5079842;28;20052;-64
2023/04/26 10:31:58;;;;;;;7.95;1.85;;;;;;;;;;5097853;27;20036;-65
2023/04/26 10:34:24;;;;;;;6.57;1.55;;;;;;;;;;5100066;27;20478;-65
2023/04/26 10:37:07;;;;;;;6.68;1.80;;;;;;;;;;5101330;27;20040;-65
2023/04/26 10:39:35;;;;;;;7.93;2.10;;;;;;;;;;5098659;27;20047;-65
2023/04/26 10:42:21;;;;;;;7.57;2.33;;;;;;;;;;5094571;27;20463;-65
2023/04/26 10:44:48;;;;;;;5.25;1.65;;;;;;;;;;5098201;28;20062;-65
2023/04/26 10:47:22;;;;;;;8.35;2.25;;;;;;;;;;5096285;27;20786;-66
2023/04/26 10:49:48;;;;;;;7.82;1.70;;;;;;;;;;5101193;28;20092;-66
2023/04/26 10:52:16;;;;;;;8.52;1.70;;;;;;;;;;5079859;27;20044;-65
2023/04/26 10:54:48;;;;;;;4.97;1.50;;;;;;;;;;5095833;27;20043;-66
2023/04/26 10:57:14;;;;;;;7.45;1.45;;;;;;;;;;5100833;27;20043;-66
2023/04/26 11:00:00;;;;;;;7.95;1.55;;;;;;;;;;5101012;27;20051;-66
2023/04/26 11:02:45;;;;;;;7.07;1.98;;;;;;;;;;5101248;27;20032;-66
2023/04/26 11:05:31;;;;;;;5.85;1.70;;;;;;;;;;5103000;28;20043;-66
2023/04/26 11:08:04;;;;;;;9.73;1.90;;;;;;;;;;5096954;27;20047;-66
2023/04/26 11:10:31;;;;;;;6.88;1.90;;;;;;;;;;5097615;28;20047;-66
2023/04/26 11:13:02;;;;;;;5.30;1.33;;;;;;;;;;5098724;28;20068;-66
2023/04/26 11:15:28;;;;;;;9.23;1.70;;;;;;;;;;5098941;27;20107;-66
2023/04/26 11:17:54;;;;;;;5.93;1.65;;;;;;;;;;5079084;28;20043;-68
2023/04/26 11:20:21;;;;;;;6.97;1.70;;;;;;;;;;5097129;27;20085;-67
2023/04/26 11:22:47;;;;;;;9.43;2.03;;;;;;;;;;5091176;27;20459;-67
2023/04/26 11:25:13;;;;;;;6.70;2.00;;;;;;;;;;5099061;28;20200;-67
2023/04/26 11:27:42;;;;;;;5.05;1.42;;;;;;;;;;5096586;27;20063;-67
2023/04/26 11:30:09;;;;;;;7.55;1.48;;;;;;;;;;5097241;27;20043;-67
2023/04/26 11:32:35;;;;;;;5.82;1.42;;;;;;;;;;5075429;28;20052;-66
2023/04/26 11:35:01;;;;;;;5.13;1.40;;;;;;;;;;5094222;27;20036;-67
2023/04/26 11:37:27;;;;;;;6.57;1.80;;;;;;;;;;5075187;28;20044;-73
2023/04/26 11:39:53;;;;;;;5.65;1.67;;;;;;;;;;5074601;28;21399;-67
2023/04/26 11:42:24;;;;;;;5.38;1.80;;;;;;;;;;5073763;28;20173;-68
2023/04/26 11:44:51;;;;;;;7.90;1.83;;;;;;;;;;5096996;27;20036;-67
2023/04/26 11:47:18;;;;;;;7.25;1.50;;;;;;;;;;5073552;28;20550;-67
2023/04/26 11:49:45;;;;;;;15.85;2.33;;;;;;;;;;5059048;28;20044;-68
2023/04/26 11:52:12;;;;;;;7.90;1.70;;;;;;;;;;5082688;28;20047;-67
2023/04/26 11:54:38;;;;;;;6.18;1.48;;;;;;;;;;5075975;27;20111;-68
2023/04/26 11:57:14;;;;;;;6.30;1.80;;;;;;;;;;5092347;27;20505;-68
2023/04/26 11:59:40;;;;;;;5.82;2.05;;;;;;;;;;5073588;28;20073;-67
2023/04/26 12:02:07;;;;;;;6.90;1.48;;;;;;;;;;5092349;27;20394;-68
2023/04/26 12:04:33;;;;;;;6.75;1.58;;;;;;;;;;5095319;28;20445;-67
2023/04/26 12:07:00;;;;;;;8.63;1.80;;;;;;;;;;5098931;28;20036;-68
2023/04/26 12:09:28;;;;;;;8.00;1.63;;;;;;;;;;5059182;28;20089;-67
2023/04/26 12:12:01;;;;;;;9.73;1.92;;;;;;;;;;5095061;27;20459;-67
2023/04/26 12:14:35;;;;;;;7.55;1.63;;;;;;;;;;5096563;28;20081;-68
2023/04/26 12:17:02;;;;;;;4.90;1.60;;;;;;;;;;5096822;27;20036;-69
2023/04/26 12:19:28;;;;;;;9.75;1.65;;;;;;;;;;5092246;28;20054;-67
2023/04/26 12:21:54;;;;;;;9.25;1.83;;;;;;;;;;5095650;27;20075;-67
2023/04/26 12:24:21;;;;;;;7.63;2.42;;;;;;;;;;5076178;27;20071;-68
2023/04/26 12:26:48;;;;;;;8.18;1.80;;;;;;;;;;5072290;28;20382;-68
2023/04/26 12:29:14;;;;;;;7.10;2.05;;;;;;;;;;5073645;28;20545;-67
2023/04/26 12:31:40;;;;;;;4.82;1.50;;;;;;;;;;5075877;28;20104;-67
2023/04/26 12:34:07;;;;;;;5.68;1.40;;;;;;;;;;5089813;27;20047;-68
2023/04/26 12:36:33;;;;;;;6.65;1.75;;;;;;;;;;5071202;28;20036;-68
2023/04/26 12:39:02;;;;;;;7.22;1.83;;;;;;;;;;5091394;28;20042;-67
2023/04/26 12:41:28;;;;;;;7.60;1.40;;;;;;;;;;5092022;28;20055;-67
2023/04/26 12:43:54;;;;;;;5.35;1.50;;;;;;;;;;5073872;28;20506;-67
2023/04/26 12:46:21;;;;;;;5.38;1.92;;;;;;;;;;5071236;28;20052;-67
2023/04/26 12:48:47;;;;;;;10.40;2.15;;;;;;;;;;5071745;28;20690;-68
2023/04/26 12:51:13;;;;;;;7.68;2.15;;;;;;;;;;5075982;28;20055;-67
2023/04/26 12:53:39;;;;;;;9.18;1.73;;;;;;;;;;5094319;28;21286;-67
2023/04/26 12:56:06;;;;;;;8.48;1.52;;;;;;;;;;5090530;28;20067;-65
2023/04/26 12:58:32;;;;;;;5.20;1.65;;;;;;;;;;5091435;28;20475;-67
2023/04/26 13:00:58;;;;;;;5.40;1.50;;;;;;;;;;5087831;28;20055;-68
2023/04/26 13:03:24;;;;;;;6.72;1.67;;;;;;;;;;5087756;28;20044;-67
2023/04/26 13:05:51;;;;;;;5.55;1.77;;;;;;;;;;5071216;28;20051;-67
2023/04/26 13:08:17;;;;;;;7.82;1.58;;;;;;;;;;5093124;28;20043;-68
2023/04/26 13:10:43;;;;;;;12.77;2.13;;;;;;;;;;5091363;28;20035;-68
2023/04/26 13:13:09;;;;;;;8.40;1.65;;;;;;;;;;5091925;28;20240;-68
2023/04/26 13:15:35;;;;;;;5.88;1.98;;;;;;;;;;5092230;28;20456;-69
2023/04/26 13:18:02;;;;;;;7.03;1.90;;;;;;;;;;5070151;28;21089;-67
2023/04/26 13:20:28;;;;;;;5.68;1.95;;;;;;;;;;5087902;28;20426;-68
2023/04/26 13:22:54;;;;;;;8.88;1.40;;;;;;;;;;5088257;28;20043;-67
2023/04/26 13:25:21;;;;;;;10.55;2.53;;;;;;;;;;5086138;28;20051;-67
2023/04/26 13:27:47;;;;;;;9.68;1.70;;;;;;;;;;5069247;28;20044;-67
2023/04/26 13:30:13;;;;;;;7.03;1.70;;;;;;;;;;5087934;28;20047;-67
2023/04/26 13:32:40;;;;;;;9.75;2.50;;;;;;;;;;5069358;28;20039;-67
2023/04/26 13:35:06;;;;;;;6.60;1.80;;;;;;;;;;5091124;28;20043;-67
2023/04/26 13:37:32;;;;;;;8.68;1.83;;;;;;;;;;5093463;28;20040;-67
2023/04/26 13:39:58;;;;;;;9.43;1.90;;;;;;;;;;5094689;28;20048;-67
2023/04/26 13:42:26;;;;;;;7.75;1.60;;;;;;;;;;5075980;28;20044;-68
2023/04/26 13:44:52;;;;;;;6.50;1.42;;;;;;;;;;5089562;28;20044;-67
2023/04/26 13:47:18;;;;;;;8.10;2.00;;;;;;;;;;5095641;28;20036;-67
2023/04/26 13:49:44;;;;;;;6.40;1.73;;;;;;;;;;5095488;28;20051;-67
2023/04/26 13:52:10;;;;;;;7.28;1.88;;;;;;;;;;5092515;28;20043;-65
2023/04/26 13:54:39;;;;;;;6.72;1.52;;;;;;;;;;5083759;28;21381;-67
2023/04/26 13:57:05;;;;;;;4.55;1.55;;;;;;;;;;5092380;27;20046;-67
2023/04/26 13:59:31;;;;;;;6.97;1.58;;;;;;;;;;5093583;27;20170;-67
2023/04/26 14:01:57;;;;;;;7.18;1.70;;;;;;;;;;5090383;28;20040;-68
2023/04/26 14:04:24;;;;;;;5.50;1.70;;;;;;;;;;5089290;28;20342;-68
2023/04/26 14:06:50;;;;;;;8.02;1.92;;;;;;;;;;5091448;27;20487;-67
2023/04/26 14:09:17;;;;;;;6.47;1.58;;;;;;;;;;5074713;28;20398;-69
2023/04/26 14:11:43;;;;;;;10.23;1.95;;;;;;;;;;5087371;28;20067;-73
2023/04/26 14:14:09;;;;;;;6.60;1.80;;;;;;;;;;5072261;27;20047;-68
2023/04/26 14:16:35;;;;;;;7.55;1.80;;;;;;;;;;5092971;27;20044;-67
2023/04/26 14:19:01;;;;;;;5.05;1.85;;;;;;;;;;5096026;28;20036;-66
2023/04/26 14:21:27;;;;;;;6.95;1.65;;;;;;;;;;5075405;27;20051;-66
2023/04/26 14:23:55;;;;;;;5.18;1.70;;;;;;;;;;5096229;28;20048;-66
2023/04/26 14:26:22;;;;;;;9.15;1.70;;;;;;;;;;5080438;28;20424;-67
2023/04/26 14:28:48;;;;;;;10.55;2.60;;;;;;;;;;5069067;28;20404;-67
2023/04/26 14:31:16;;;;;;;7.18;2.53;;;;;;;;;;5073646;28;20041;-67
2023/04/26 14:33:42;;;;;;;7.07;1.88;;;;;;;;;;5065901;28;20151;-67
2023/04/26 14:36:09;;;;;;;12.63;2.42;;;;;;;;;;5053081;28;20044;-67
2023/04/26 14:38:35;;;;;;;5.32;1.60;;;;;;;;;;5071452;28;20036;-66